Time;durP1;ratioP1;P1;durP2;ratioP2;P2;SDS_P1;SDS_P2;PMS_P1;PMS_P2;Temp;Humidity;BMP_temperature;BMP_pressure;BME280_temperature;BME280_humidity;BME280_pressure;Samples;Min_cycle;Max_cycle;Signal;HPM_P1;HPM_P2
2022/09/15 00:03:25;;;;;;;13.80;11.48;;;;;;;13.55;100.00;97297.38;15295241;19;20027;-84
2022/09/15 00:08:30;;;;;;;14.18;10.77;;;;;;;13.54;100.00;97290.28;15287739;19;20011;-83
2022/09/15 00:13:38;;;;;;;13.60;11.95;;;;;;;13.56;100.00;97299.03;15291840;19;20014;-84
2022/09/15 00:18:44;;;;;;;17.77;13.85;;;;;;;13.55;100.00;97308.19;15294043;19;20007;-83
2022/09/15 00:23:51;;;;;;;17.27;13.73;;;;;;;13.55;100.00;97308.19;15308077;19;20027;-82
2022/09/15 00:29:00;;;;;;;19.88;15.40;;;;;;;13.58;100.00;97300.72;15289723;19;20186;-83
2022/09/15 00:34:06;;;;;;;22.58;16.63;;;;;;;13.60;100.00;97312.97;15294409;19;20025;-83
2022/09/15 00:39:11;;;;;;;25.33;17.77;;;;;;;13.59;100.00;97314.03;15286524;19;20002;-83
2022/09/15 00:44:45;;;;;;;20.85;16.10;;;;;;;13.61;100.00;97302.97;15294612;19;20122;-83
2022/09/15 00:49:57;;;;;;;23.58;16.27;;;;;;;13.60;100.00;97325.66;15282520;19;20070;-83
2022/09/15 04:28:20;;;;;;;38.92;18.05;;;;;;;13.18;100.00;97321.22;15292074;19;20007;-85
2022/09/15 04:33:25;;;;;;;35.85;18.40;;;;;;;13.17;100.00;97332.28;15303929;19;20015;-83
2022/09/15 04:38:30;;;;;;;38.35;17.90;;;;;;;13.18;100.00;97333.91;15306341;19;20438;-82
2022/09/15 04:43:37;;;;;;;40.83;19.08;;;;;;;13.15;100.00;97340.56;15305266;19;20006;-84
2022/09/15 04:48:44;;;;;;;42.83;20.02;;;;;;;13.10;100.00;97338.47;15305836;19;20021;-84
2022/09/15 04:53:50;;;;;;;46.08;21.88;;;;;;;13.12;100.00;97338.25;15305922;19;20006;-81
2022/09/15 04:58:59;;;;;;;43.42;22.33;;;;;;;13.13;100.00;97350.75;15306546;19;20034;-82
2022/09/15 05:04:07;;;;;;;45.63;22.65;;;;;;;13.10;100.00;97348.47;15309768;19;20070;-83
2022/09/15 05:09:14;;;;;;;48.08;22.60;;;;;;;13.11;100.00;97355.56;15307309;19;20014;-82
2022/09/15 05:14:22;;;;;;;46.88;23.98;;;;;;;13.12;100.00;97351.78;15305871;19;20074;-82
2022/09/15 05:19:26;;;;;;;47.33;25.05;;;;;;;13.09;100.00;97363.03;15302406;19;20014;-84
2022/09/15 05:24:32;;;;;;;54.53;26.95;;;;;;;13.08;100.00;97362.19;15304422;19;20022;-86
2022/09/15 05:29:39;;;;;;;44.20;24.55;;;;;;;13.03;100.00;97366.53;15297500;19;20018;-84
2022/09/15 05:34:44;;;;;;;39.97;21.70;;;;;;;13.01;100.00;97364.03;15295008;19;20022;-83
2022/09/15 05:39:49;;;;;;;31.30;19.75;;;;;;;12.95;100.00;97362.13;15291578;19;20396;-85
2022/09/15 05:44:56;;;;;;;30.90;19.45;;;;;;;12.94;100.00;97353.19;15295515;19;20417;-84
2022/09/15 05:50:00;;;;;;;35.10;21.70;;;;;;;12.92;100.00;97354.44;15286945;19;20088;-84
2022/09/15 05:55:05;;;;;;;38.97;23.90;;;;;;;12.90;100.00;97360.03;15293052;19;20016;-81
2022/09/15 06:00:14;;;;;;;37.00;23.65;;;;;;;12.88;100.00;97355.88;15299179;19;20467;-83
2022/09/15 06:05:19;;;;;;;35.88;24.00;;;;;;;12.93;100.00;97351.53;15299770;19;20039;-85
2022/09/15 06:10:24;;;;;;;42.53;26.10;;;;;;;13.02;100.00;97356.75;15351358;19;20029;-88
2022/09/15 06:15:33;;;;;;;41.78;24.60;;;;;;;13.01;100.00;97365.91;15294901;19;20086;-83
2022/09/15 06:20:39;;;;;;;42.00;25.02;;;;;;;13.01;100.00;97371.31;15302768;19;20055;-84
2022/09/15 06:25:43;;;;;;;42.95;25.15;;;;;;;13.00;100.00;97375.03;15300905;19;20061;-85
2022/09/15 06:30:51;;;;;;;43.30;25.52;;;;;;;13.08;100.00;97378.41;15292772;19;20006;-86
2022/09/15 06:35:56;;;;;;;37.95;24.77;;;;;;;13.12;100.00;97386.13;15291292;19;20097;-85
2022/09/15 06:41:00;;;;;;;33.97;22.25;;;;;;;13.09;100.00;97381.97;15293235;19;20090;-85
2022/09/15 06:46:10;;;;;;;33.10;21.95;;;;;;;13.14;100.00;97392.97;15303740;19;20474;-84
2022/09/15 06:51:17;;;;;;;36.13;22.30;;;;;;;13.09;100.00;97395.47;15308930;19;20015;-86
2022/09/15 06:56:26;;;;;;;33.08;21.77;;;;;;;13.03;100.00;97396.28;15275834;19;20014;-52
2022/09/15 07:01:34;;;;;;;33.15;21.38;;;;;;;12.93;100.00;97396.66;15282981;19;20482;-55
2022/09/15 07:06:41;;;;;;;27.73;20.27;;;;;;;12.93;100.00;97400.19;15277764;19;20077;-57
2022/09/15 07:11:45;;;;;;;24.83;18.13;;;;;;;12.96;100.00;97390.84;15282544;19;20006;-58
2022/09/15 07:16:53;;;;;;;27.58;18.70;;;;;;;13.04;100.00;97403.34;15276844;19;20449;-57
2022/09/15 07:21:59;;;;;;;24.48;17.83;;;;;;;13.08;100.00;97401.91;15284871;19;20445;-59
2022/09/15 07:27:03;;;;;;;21.88;15.48;;;;;;;13.14;100.00;97409.22;15268513;19;20014;-56
2022/09/15 07:32:11;;;;;;;19.77;14.77;;;;;;;13.19;100.00;97412.16;15281779;19;20014;-55
2022/09/15 07:37:16;;;;;;;20.55;13.98;;;;;;;13.21;100.00;97429.00;15275053;19;20255;-55
2022/09/15 07:42:21;;;;;;;18.52;12.88;;;;;;;13.14;100.00;97436.25;15282267;19;20019;-53
2022/09/15 07:47:28;;;;;;;15.52;9.50;;;;;;;13.02;100.00;97435.16;15275208;19;20460;-56
2022/09/15 07:52:33;;;;;;;15.50;10.52;;;;;;;13.03;100.00;97440.38;15283728;19;20073;-54
2022/09/15 07:57:38;;;;;;;13.57;8.88;;;;;;;12.95;100.00;97446.78;15275289;19;20078;-55
2022/09/15 08:02:45;;;;;;;15.82;9.75;;;;;;;12.95;100.00;97448.63;15279237;19;20348;-55
2022/09/15 08:07:51;;;;;;;16.00;9.35;;;;;;;12.95;100.00;97449.50;15279002;19;20031;-53
2022/09/15 08:12:56;;;;;;;14.90;9.35;;;;;;;12.92;100.00;97444.47;15279189;19;20055;-55
2022/09/15 08:18:04;;;;;;;13.98;8.43;;;;;;;12.92;100.00;97452.59;15276093;19;20027;-55
2022/09/15 08:23:09;;;;;;;14.55;9.48;;;;;;;12.93;100.00;97448.03;15281448;19;20014;-54
2022/09/15 08:28:14;;;;;;;14.63;8.85;;;;;;;12.93;100.00;97461.53;15279485;19;20002;-52
2022/09/15 08:33:22;;;;;;;15.45;9.38;;;;;;;12.98;100.00;97458.25;15266371;19;20014;-53
2022/09/15 08:38:26;;;;;;;16.48;9.00;;;;;;;13.06;100.00;97452.66;15276997;19;20006;-54
2022/09/15 08:43:37;;;;;;;10.75;7.53;;;;;;;13.13;100.00;97449.97;15276989;19;20006;-54
2022/09/15 08:48:50;;;;;;;11.48;7.82;;;;;;;13.19;100.00;97450.00;15276009;19;20494;-54
2022/09/15 08:54:01;;;;;;;9.65;6.68;;;;;;;13.35;100.00;97448.81;15279588;19;20023;-52
2022/09/15 08:59:06;;;;;;;10.80;7.35;;;;;;;13.46;100.00;97452.84;15275050;19;20046;-49
2022/09/15 09:04:31;;;;;;;12.52;6.40;;;;;;;13.51;100.00;97436.81;15265952;19;20023;-48
2022/09/15 09:09:44;;;;;;;12.32;5.45;;;;;;;13.59;100.00;97424.13;15274760;19;20501;-50
2022/09/15 09:15:04;;;;;;;8.20;5.47;;;;;;;13.78;100.00;97415.22;15273559;19;20018;-49
2022/09/15 09:20:31;;;;;;;8.90;5.25;;;;;;;13.96;100.00;97427.28;15273353;19;20007;-49
2022/09/15 09:25:35;;;;;;;8.63;5.00;;;;;;;14.08;100.00;97417.50;15276287;19;20007;-49
2022/09/15 09:30:41;;;;;;;9.38;4.45;;;;;;;14.24;100.00;97423.56;15275696;19;20010;-51
2022/09/15 09:35:51;;;;;;;7.57;5.20;;;;;;;14.35;100.00;97424.81;15262282;19;20009;-49
2022/09/15 09:40:56;;;;;;;5.40;4.00;;;;;;;14.31;100.00;97414.38;15274075;19;20014;-49
2022/09/15 09:46:13;;;;;;;6.18;3.60;;;;;;;14.36;100.00;97405.63;15271857;19;20014;-50
2022/09/15 09:51:36;;;;;;;4.07;3.20;;;;;;;14.42;100.00;97404.75;15274291;19;20388;-49
2022/09/15 09:56:41;;;;;;;5.53;3.13;;;;;;;14.55;100.00;97406.63;15269087;19;20006;-50
2022/09/15 10:02:07;;;;;;;4.60;2.78;;;;;;;14.43;100.00;97401.00;15272397;19;20007;-52
2022/09/15 10:07:17;;;;;;;6.10;3.10;;;;;;;14.65;100.00;97403.47;15264373;19;20054;-48
2022/09/15 10:12:25;;;;;;;4.07;2.47;;;;;;;14.64;100.00;97405.34;15269071;19;20109;-53
2022/09/15 10:17:42;;;;;;;5.43;2.00;;;;;;;14.63;100.00;97394.72;15268045;19;20018;-51
2022/09/15 10:22:49;;;;;;;3.05;1.60;;;;;;;14.74;100.00;97385.97;15273743;19;20034;-52
2022/09/15 10:28:11;;;;;;;3.10;1.83;;;;;;;14.88;100.00;97385.91;15271339;19;20027;-51
2022/09/15 10:33:21;;;;;;;4.03;1.92;;;;;;;15.03;100.00;97382.94;15269724;19;20010;-48
2022/09/15 10:38:35;;;;;;;3.47;1.70;;;;;;;15.24;100.00;97381.78;15263392;19;20015;-49
2022/09/15 10:43:52;;;;;;;4.57;2.00;;;;;;;15.35;100.00;97370.22;15265729;19;20458;-48
2022/09/15 10:49:09;;;;;;;3.90;1.52;;;;;;;15.39;100.00;97382.31;15271673;19;20363;-51
2022/09/15 10:54:37;;;;;;;3.10;1.80;;;;;;;15.30;100.00;97372.78;15270879;19;20019;-49
2022/09/15 10:59:51;;;;;;;3.65;1.83;;;;;;;15.18;100.00;97379.94;15268207;19;20490;-47
2022/09/15 11:05:17;;;;;;;3.20;1.63;;;;;;;15.10;100.00;97372.88;15266468;19;20006;-50
2022/09/15 11:10:35;;;;;;;3.38;1.70;;;;;;;15.27;100.00;97372.38;15262630;19;20496;-48
2022/09/15 11:15:55;;;;;;;4.30;1.80;;;;;;;15.38;100.00;97377.13;15262772;19;20014;-54
2022/09/15 11:21:29;;;;;;;3.85;1.58;;;;;;;15.38;100.00;97379.84;15266330;19;20454;-47
2022/09/15 11:26:42;;;;;;;6.32;1.70;;;;;;;15.34;100.00;97374.00;15266648;19;20007;-48
2022/09/15 11:31:53;;;;;;;2.55;1.60;;;;;;;15.35;100.00;97372.94;15279890;19;20014;-48
2022/09/15 11:37:06;;;;;;;4.30;1.58;;;;;;;15.35;100.00;97372.94;15275904;19;20042;-48
2022/09/15 11:42:19;;;;;;;3.40;1.30;;;;;;;15.46;100.00;97382.28;15275375;19;20038;-51
2022/09/15 11:47:32;;;;;;;2.45;1.10;;;;;;;15.50;100.00;97377.25;15273865;19;20090;-49
2022/09/15 11:52:48;;;;;;;2.22;1.20;;;;;;;15.40;100.00;97383.97;15282619;19;20018;-51
2022/09/15 11:58:04;;;;;;;2.78;1.35;;;;;;;15.34;100.00;97375.88;15278303;19;20016;-48
2022/09/15 12:03:21;;;;;;;4.15;1.40;;;;;;;15.39;100.00;97368.75;15281721;19;20031;-48
2022/09/15 12:08:33;;;;;;;4.10;1.30;;;;;;;15.69;100.00;97370.84;15280643;19;20043;-47
2022/09/15 12:13:42;;;;;;;3.83;1.20;;;;;;;15.65;100.00;97372.34;15282210;19;20034;-48
2022/09/15 12:18:53;;;;;;;2.28;1.20;;;;;;;15.66;100.00;97370.44;15268355;19;20002;-48
2022/09/15 12:24:03;;;;;;;2.13;1.02;;;;;;;15.62;100.00;97364.63;15280245;19;20015;-49
2022/09/15 12:29:38;;;;;;;2.05;1.20;;;;;;;15.53;100.00;97371.38;15274894;19;20011;-48
2022/09/15 12:35:05;;;;;;;1.85;1.10;;;;;;;15.52;100.00;97369.72;15278436;19;20365;-57
2022/09/15 12:40:31;;;;;;;1.83;0.90;;;;;;;15.48;100.00;97366.63;15278276;19;20019;-56
2022/09/15 12:45:40;;;;;;;2.30;1.10;;;;;;;15.54;100.00;97368.44;15274657;19;20017;-57
2022/09/15 12:50:55;;;;;;;3.10;1.00;;;;;;;15.48;100.00;97380.19;15267555;19;20015;-55
2022/09/15 12:56:04;;;;;;;2.63;1.10;;;;;;;15.39;100.00;97376.88;15274554;19;20018;-54
2022/09/15 13:01:54;;;;;;;2.75;1.10;;;;;;;15.20;100.00;97385.97;15276350;19;20030;-57
2022/09/15 13:07:28;;;;;;;2.88;1.15;;;;;;;15.08;100.00;97386.66;15271428;19;20367;-55
2022/09/15 13:12:39;;;;;;;3.08;1.23;;;;;;;15.05;100.00;97391.69;15275200;19;20006;-57
2022/09/15 13:17:47;;;;;;;1.60;1.00;;;;;;;14.96;100.00;97399.22;15271159;19;20018;-57
2022/09/15 13:22:55;;;;;;;2.38;1.20;;;;;;;14.95;100.00;97398.38;15270234;19;20372;-56
2022/09/15 13:28:05;;;;;;;3.70;1.40;;;;;;;14.95;100.00;97403.81;15279164;19;20464;-55
2022/09/15 13:33:24;;;;;;;4.13;1.42;;;;;;;14.98;100.00;97399.84;15275894;19;20034;-55
2022/09/15 13:38:57;;;;;;;3.35;1.30;;;;;;;15.03;100.00;97397.31;15273478;19;20038;-54
2022/09/15 13:44:30;;;;;;;3.90;1.40;;;;;;;15.01;100.00;97399.41;15280480;19;20007;-56
2022/09/15 13:49:49;;;;;;;2.90;1.10;;;;;;;14.97;100.00;97383.78;15276902;19;20010;-56
2022/09/15 13:55:09;;;;;;;4.78;1.13;;;;;;;15.08;100.00;97375.81;15263762;19;20379;-56
2022/09/15 14:00:20;;;;;;;1.92;1.10;;;;;;;15.29;100.00;97376.53;15275457;19;20010;-57
2022/09/15 14:05:31;;;;;;;2.75;1.00;;;;;;;15.38;100.00;97367.09;15277090;19;20011;-56
2022/09/15 14:10:45;;;;;;;4.75;1.10;;;;;;;15.43;100.00;97368.31;15274548;19;20019;-58
2022/09/15 14:16:07;;;;;;;2.08;0.88;;;;;;;15.38;100.00;97368.97;15270964;19;20380;-59
2022/09/15 14:21:20;;;;;;;2.28;0.95;;;;;;;15.45;100.00;97364.31;15270127;19;20022;-55
2022/09/15 14:26:28;;;;;;;3.67;0.90;;;;;;;15.39;100.00;97357.06;15263769;19;20401;-55
2022/09/15 14:31:39;;;;;;;1.77;1.00;;;;;;;15.48;100.00;97358.47;15273452;19;20551;-55
2022/09/15 14:36:45;;;;;;;3.05;1.00;;;;;;;15.52;100.00;97356.16;15269142;19;20018;-52
2022/09/15 14:41:52;;;;;;;1.00;0.60;;;;;;;15.59;100.00;97354.19;15274853;19;20014;-55
2022/09/15 14:47:01;;;;;;;2.30;0.90;;;;;;;15.70;100.00;97356.19;15277720;19;20030;-57
2022/09/15 14:52:14;;;;;;;3.60;0.80;;;;;;;16.10;100.00;97356.97;15276976;19;20010;-55
2022/09/15 14:57:24;;;;;;;2.28;0.80;;;;;;;15.99;100.00;97348.50;15262010;19;20019;-57
2022/09/15 15:02:48;;;;;;;1.48;0.60;;;;;;;16.09;100.00;97341.72;15268466;19;20017;-58
2022/09/15 15:07:57;;;;;;;2.53;0.75;;;;;;;16.43;100.00;97347.63;15284577;19;20010;-56
2022/09/15 15:13:07;;;;;;;1.77;0.80;;;;;;;16.60;100.00;97354.16;15286782;19;20034;-57
2022/09/15 15:18:41;;;;;;;1.50;0.70;;;;;;;16.82;100.00;97344.72;15281591;19;20010;-46
2022/09/15 15:23:47;;;;;;;1.88;0.60;;;;;;;16.89;100.00;97362.59;15285073;19;20010;-49
2022/09/15 15:28:52;;;;;;;4.70;0.60;;;;;;;16.88;100.00;97355.47;15280670;19;20726;-49
2022/09/15 15:34:04;;;;;;;3.90;0.63;;;;;;;16.75;100.00;97347.50;15281780;19;20359;-51
2022/09/15 15:39:23;;;;;;;3.45;0.80;;;;;;;16.73;100.00;97352.34;15279999;19;20002;-62
2022/09/15 15:44:29;;;;;;;1.50;0.60;;;;;;;16.66;100.00;97354.28;15281665;19;20028;-61
2022/09/15 15:49:37;;;;;;;1.90;0.52;;;;;;;16.81;100.00;97354.75;15291136;19;20023;-59
2022/09/15 15:54:59;;;;;;;1.80;0.57;;;;;;;16.69;100.00;97368.28;15287687;19;20017;-57
2022/09/15 16:00:13;;;;;;;2.50;0.63;;;;;;;16.84;100.00;97361.63;15278389;19;20007;-58
2022/09/15 16:05:30;;;;;;;1.45;0.50;;;;;;;16.59;100.00;97360.66;15277614;19;20011;-58
2022/09/15 16:10:42;;;;;;;1.95;0.77;;;;;;;16.57;100.00;97359.22;15280928;19;20010;-59
2022/09/15 16:15:48;;;;;;;4.03;0.70;;;;;;;16.64;100.00;97360.78;15280028;19;20014;-57
2022/09/15 16:20:55;;;;;;;2.72;0.65;;;;;;;16.52;100.00;97367.22;15286312;19;20010;-56
2022/09/15 16:26:05;;;;;;;1.95;0.50;;;;;;;16.39;100.00;97358.13;15280273;19;20541;-55
2022/09/15 16:31:13;;;;;;;1.73;0.57;;;;;;;16.06;100.00;97370.16;15285018;19;20756;-56
2022/09/15 16:36:21;;;;;;;2.22;0.60;;;;;;;15.70;100.00;97383.34;15267764;19;20603;-64
2022/09/15 16:41:27;;;;;;;1.35;0.70;;;;;;;15.53;100.00;97382.25;15281265;19;20019;-57
2022/09/15 16:46:32;;;;;;;3.22;0.60;;;;;;;15.34;100.00;97376.72;15280318;19;20482;-58
2022/09/15 16:57:40;;;;;;;3.05;0.50;;;;;;;14.95;100.00;97390.25;15277646;19;20014;-47
2022/09/15 17:02:45;;;;;;;3.25;0.70;;;;;;;14.87;100.00;97386.97;15280436;19;20407;-50
2022/09/15 17:07:50;;;;;;;1.67;0.50;;;;;;;14.76;100.00;97383.84;15269020;19;20019;-50
2022/09/15 17:12:58;;;;;;;1.83;0.52;;;;;;;14.71;100.00;97383.69;15276069;19;20027;-52
2022/09/15 17:18:04;;;;;;;2.25;0.50;;;;;;;14.62;100.00;97398.47;15273819;19;20017;-48
2022/09/15 17:23:19;;;;;;;1.40;0.55;;;;;;;14.53;100.00;97397.88;15276154;19;20465;-47
2022/09/15 17:28:29;;;;;;;2.78;0.70;;;;;;;14.48;100.00;97387.66;15276890;19;20034;-47
2022/09/15 17:33:34;;;;;;;1.63;0.55;;;;;;;14.35;100.00;97406.66;15274772;19;20018;-49
2022/09/15 17:38:40;;;;;;;4.95;0.60;;;;;;;14.30;100.00;97403.72;15269045;19;20018;-49
2022/09/15 17:43:48;;;;;;;2.63;0.60;;;;;;;14.25;100.00;97398.94;15271952;19;20458;-47
2022/09/15 17:48:53;;;;;;;1.45;0.60;;;;;;;14.16;100.00;97405.63;15274108;19;20047;-49
2022/09/15 17:53:58;;;;;;;1.65;0.40;;;;;;;14.11;100.00;97397.31;15272576;19;20739;-48
2022/09/15 17:59:06;;;;;;;3.05;0.60;;;;;;;14.06;100.00;97397.09;15271158;19;20128;-49
2022/09/15 18:04:12;;;;;;;2.65;0.70;;;;;;;14.00;100.00;97404.19;15273865;19;20038;-53
2022/09/15 18:09:17;;;;;;;0.98;0.50;;;;;;;14.06;100.00;97406.03;15273303;19;20017;-52
2022/09/15 18:14:24;;;;;;;1.38;0.43;;;;;;;13.94;100.00;97410.41;15270903;19;20035;-50
2022/09/15 18:19:29;;;;;;;2.08;0.50;;;;;;;13.83;100.00;97410.00;15273720;19;20023;-49
2022/09/15 18:24:34;;;;;;;3.05;0.75;;;;;;;13.77;100.00;97412.69;15279517;19;20510;-50
2022/09/15 18:29:42;;;;;;;2.85;0.60;;;;;;;13.75;100.00;97414.81;15277764;19;20749;-48
2022/09/15 18:34:47;;;;;;;1.85;0.50;;;;;;;13.67;100.00;97422.06;15273214;19;20027;-51
2022/09/15 18:39:52;;;;;;;1.27;0.52;;;;;;;13.61;100.00;97419.34;15269510;19;20046;-52
2022/09/15 18:45:00;;;;;;;1.25;0.60;;;;;;;13.52;100.00;97430.38;15278712;19;20021;-50
2022/09/15 18:50:13;;;;;;;1.58;0.43;;;;;;;13.62;100.00;97429.97;15283090;19;20035;-52
2022/09/15 18:55:20;;;;;;;2.08;0.60;;;;;;;13.61;100.00;97436.44;15282652;19;20733;-49
2022/09/15 19:00:28;;;;;;;2.17;0.55;;;;;;;13.63;100.00;97438.91;15278992;19;20458;-46
2022/09/15 19:05:34;;;;;;;2.88;0.65;;;;;;;13.69;100.00;97443.53;14768366;19;10000439;-47
2022/09/15 19:10:42;;;;;;;1.38;0.60;;;;;;;13.70;100.00;97456.03;15289707;19;20010;-52
2022/09/15 19:15:50;;;;;;;3.53;0.60;;;;;;;13.69;100.00;97447.06;15279739;19;20007;-50
2022/09/15 19:21:05;;;;;;;3.22;0.60;;;;;;;13.62;100.00;97448.06;15282047;19;20307;-47
2022/09/15 19:26:15;;;;;;;2.13;0.70;;;;;;;13.56;100.00;97461.41;15283014;19;20015;-47
2022/09/15 19:31:23;;;;;;;2.00;0.60;;;;;;;13.44;100.00;97452.22;15287680;19;20013;-51
2022/09/15 19:36:28;;;;;;;1.05;0.47;;;;;;;13.37;100.00;97454.00;15278145;19;20074;-47
2022/09/15 19:41:33;;;;;;;2.85;0.65;;;;;;;13.40;100.00;97461.75;15284824;19;20011;-46
2022/09/15 19:46:41;;;;;;;1.25;0.60;;;;;;;13.40;100.00;97450.94;15277631;19;20029;-55
2022/09/15 19:51:51;;;;;;;2.00;0.60;;;;;;;13.41;100.00;97460.72;15278466;19;20022;-52
2022/09/15 19:56:57;;;;;;;3.20;0.75;;;;;;;13.38;100.00;97458.38;15278438;19;20654;-51
2022/09/15 20:02:04;;;;;;;3.25;0.80;;;;;;;13.33;100.00;97463.59;15285168;19;20015;-51
2022/09/15 20:07:09;;;;;;;1.60;0.60;;;;;;;13.29;100.00;97465.03;15282286;19;20752;-49
2022/09/15 20:12:14;;;;;;;3.67;0.90;;;;;;;13.26;100.00;97466.25;15281399;19;20015;-52
2022/09/15 20:17:22;;;;;;;3.00;0.80;;;;;;;13.20;100.00;97467.91;15275579;19;20010;-48
2022/09/15 20:22:27;;;;;;;2.22;0.60;;;;;;;13.23;100.00;97478.31;15280707;19;20019;-49
2022/09/15 20:27:32;;;;;;;2.13;0.60;;;;;;;13.28;100.00;97471.47;15279552;19;20007;-48
2022/09/15 20:32:40;;;;;;;2.47;0.70;;;;;;;13.20;100.00;97477.88;15279817;19;20031;-51
2022/09/15 20:37:45;;;;;;;2.78;0.70;;;;;;;13.15;100.00;97475.78;15280684;19;20019;-50
2022/09/15 20:42:50;;;;;;;2.20;0.70;;;;;;;13.08;100.00;97481.16;15283302;19;20014;-47
2022/09/15 20:47:58;;;;;;;1.55;0.50;;;;;;;13.00;100.00;97488.59;15282493;19;20116;-50
2022/09/15 20:53:03;;;;;;;1.85;0.70;;;;;;;12.98;100.00;97488.78;15270555;19;20041;-48
2022/09/15 20:58:09;;;;;;;2.25;0.80;;;;;;;13.15;100.00;97502.00;15278312;19;20014;-50
2022/09/15 21:03:17;;;;;;;4.18;0.90;;;;;;;13.15;100.00;97510.13;15260057;19;20712;-82
2022/09/15 21:08:21;;;;;;;1.67;0.77;;;;;;;13.11;100.00;97506.97;15286446;19;20025;-83
2022/09/15 21:13:29;;;;;;;2.85;0.90;;;;;;;13.12;100.00;97508.63;15291550;19;20374;-83
2022/09/15 21:18:37;;;;;;;4.30;0.90;;;;;;;13.17;100.00;97516.16;15288135;19;20411;-82
2022/09/15 21:23:44;;;;;;;3.50;0.88;;;;;;;13.16;100.00;97515.31;15283731;19;20015;-82
2022/09/15 21:28:50;;;;;;;2.15;0.70;;;;;;;13.22;100.00;97514.53;15286419;19;20082;-82
2022/09/15 21:33:58;;;;;;;3.22;0.70;;;;;;;13.13;100.00;97528.41;15288072;19;20442;-83
